aviador You're here:

CYSF Decoded Metar

STONY RAPIDS in SK, CANADA
Report Time2017-12-16 18:00:00
UTC Time2017-12-16 18:51:46
Flight Rules mvfr MVFR
WindVRB at 02 kt
Visibility9999 m
Phenomena:N/A
Clouds:Overcast 014 Hf
Expected CloudBase > 1,200 ft AGL from Temp-Dew spread
Ceiling1,400 ft
Temp-18°C (ISA -31)
Dew Point-21°C (78% RH)
AAT-22.3°C
QNH1007 hPa
Density Alt-2,943 ft
Elevation820 ft
Report Wrong Elevation
Raw Report
CYSF 161800Z AUTO VRB02KT 9SM OVC014 M18/M21 A2974 RMK SLP102=

Extra information for CYSF:More info

Metar Taf Metar & Taf Last 4 Metars F.Rules Stats Wind Profile Meteogram Temp Stats Airport Information Weather charts Add Link Nearby VenuesMetar ALERT Operation Metar Decoded Social comments